createdAt,value
2019-04-07T00:00:32.718Z,9.91
2019-04-07T00:01:32.727Z,9.92
2019-04-07T00:02:33.070Z,9.89
2019-04-07T00:03:33.290Z,9.86
2019-04-07T00:04:33.025Z,9.77
2019-04-07T00:05:32.659Z,9.77
2019-04-07T00:06:32.647Z,9.84
2019-04-07T00:07:33.206Z,9.77
2019-04-07T00:08:32.925Z,9.79
2019-04-07T00:09:33.146Z,9.79
2019-04-07T00:10:32.602Z,9.76
2019-04-07T00:11:32.591Z,9.86
2019-04-07T00:12:32.587Z,9.83
2019-04-07T00:13:32.758Z,9.80
2019-04-07T00:14:32.928Z,9.79
2019-04-07T00:15:33.249Z,9.80
2019-04-07T00:16:32.759Z,9.76
2019-04-07T00:17:32.575Z,9.76
2019-04-07T00:18:32.534Z,9.79
2019-04-07T00:19:32.499Z,9.69
2019-04-07T00:20:32.530Z,9.68
2019-04-07T00:21:33.137Z,9.74
2019-04-07T00:22:32.513Z,9.64
2019-04-07T00:23:32.925Z,9.64
2019-04-07T00:24:33.132Z,9.68
2019-04-07T00:25:32.438Z,9.69
2019-04-07T00:26:32.431Z,9.65
2019-04-07T00:27:32.436Z,9.61
2019-04-07T00:28:32.542Z,9.62
2019-04-07T00:29:32.399Z,9.64
2019-04-07T00:30:32.379Z,9.66
2019-04-07T00:31:32.374Z,9.64
2019-04-07T00:32:32.795Z,9.68
2019-04-07T00:33:32.360Z,9.59
2019-04-07T00:34:32.346Z,9.66
2019-04-07T00:35:33.278Z,9.61
2019-04-07T00:36:32.874Z,9.64
2019-04-07T00:37:32.742Z,9.56
2019-04-07T00:38:32.553Z,9.62
2019-04-07T00:39:32.342Z,9.61
2019-04-07T00:40:32.282Z,9.55
2019-04-07T00:41:32.254Z,9.50
2019-04-07T00:42:32.624Z,9.54
2019-04-07T00:43:32.230Z,9.48
2019-04-07T00:44:32.789Z,9.54
2019-04-07T00:45:32.230Z,9.56
2019-04-07T00:46:32.291Z,9.44
2019-04-07T00:47:32.318Z,9.50
2019-04-07T00:48:32.184Z,9.48
2019-04-07T00:49:32.310Z,9.50
2019-04-07T00:50:32.670Z,9.47
2019-04-07T00:51:32.168Z,9.59
2019-04-07T00:52:32.677Z,9.54
2019-04-07T00:53:32.128Z,9.46
2019-04-07T00:54:32.660Z,9.44
2019-04-07T00:55:32.217Z,9.47
2019-04-07T00:56:32.098Z,9.48
2019-04-07T00:57:32.726Z,9.40
2019-04-07T00:58:32.066Z,9.44
2019-04-07T00:59:32.060Z,9.46
2019-04-07T01:00:32.423Z,9.41
2019-04-07T01:01:32.042Z,9.40
2019-04-07T01:02:32.268Z,9.39
2019-04-07T01:03:32.688Z,9.39
2019-04-07T01:04:32.010Z,9.43
2019-04-07T01:05:36.211Z,9.40
2019-04-07T01:06:32.978Z,9.41
2019-04-07T01:07:31.973Z,9.40
2019-04-07T01:08:32.617Z,9.40
2019-04-07T01:09:32.615Z,9.40
2019-04-07T01:10:31.930Z,9.40
2019-04-07T01:11:32.112Z,9.40
2019-04-07T01:12:31.946Z,9.37
2019-04-07T01:13:32.018Z,9.43
2019-04-07T01:14:32.367Z,9.40
2019-04-07T01:15:31.882Z,9.40
2019-04-07T01:16:31.866Z,9.46
2019-04-07T01:17:31.880Z,9.40
2019-04-07T01:18:31.848Z,9.39
2019-04-07T01:19:31.834Z,9.40
2019-04-07T01:20:31.839Z,9.39
2019-04-07T01:21:32.354Z,9.39
2019-04-07T01:22:31.913Z,9.40
2019-04-07T01:23:32.460Z,9.37
2019-04-07T01:24:31.778Z,9.39
2019-04-07T01:25:31.869Z,9.36
2019-04-07T01:26:31.850Z,9.23
2019-04-07T01:27:31.747Z,9.31
2019-04-07T01:28:31.742Z,9.34
2019-04-07T01:29:32.125Z,9.25
2019-04-07T01:30:31.713Z,9.25
2019-04-07T01:31:31.701Z,9.26
2019-04-07T01:32:31.786Z,9.19
2019-04-07T01:33:32.333Z,9.29
2019-04-07T01:34:31.666Z,9.21
2019-04-07T01:35:32.064Z,9.31
2019-04-07T01:36:31.727Z,9.18
2019-04-07T01:37:31.669Z,9.28
2019-04-07T01:38:32.133Z,9.25
2019-04-07T01:39:32.218Z,9.19
2019-04-07T01:40:32.197Z,9.21
2019-04-07T01:41:31.765Z,9.21
2019-04-07T01:42:31.766Z,9.22
2019-04-07T01:43:31.780Z,9.21
2019-04-07T01:44:31.574Z,9.23
2019-04-07T01:45:31.860Z,9.22
2019-04-07T01:46:31.724Z,9.21
2019-04-07T01:47:32.087Z,9.10
2019-04-07T01:48:31.530Z,9.23
2019-04-07T01:49:31.510Z,9.18
2019-04-07T01:50:31.486Z,9.18
2019-04-07T01:51:32.184Z,9.16
2019-04-07T01:52:31.639Z,9.19
2019-04-07T01:53:31.450Z,9.21
2019-04-07T01:54:31.825Z,9.26
2019-04-07T01:55:31.442Z,9.23
2019-04-07T01:56:31.447Z,9.11
2019-04-07T01:57:31.407Z,9.22
2019-04-07T01:58:31.690Z,9.13
2019-04-07T01:59:31.386Z,9.03
2019-04-07T02:00:31.672Z,9.11
2019-04-07T02:01:31.395Z,9.10
2019-04-07T02:02:31.365Z,9.11
2019-04-07T02:03:32.016Z,9.11
2019-04-07T02:04:31.326Z,9.06
2019-04-07T02:05:31.429Z,9.08
2019-04-07T02:06:31.326Z,8.94
2019-04-07T02:07:31.295Z,8.87
2019-04-07T02:08:32.030Z,8.92
2019-04-07T02:09:31.591Z,8.95
2019-04-07T02:10:31.538Z,9.02
2019-04-07T02:11:31.725Z,9.00
2019-04-07T02:12:31.388Z,8.88
2019-04-07T02:13:31.235Z,8.88
2019-04-07T02:14:31.303Z,8.97
2019-04-07T02:15:31.860Z,8.88
2019-04-07T02:16:31.306Z,8.91
2019-04-07T02:17:31.738Z,8.97
2019-04-07T02:18:31.359Z,8.92
2019-04-07T02:19:31.614Z,8.88
2019-04-07T02:20:31.219Z,8.88
2019-04-07T02:21:31.146Z,8.82
2019-04-07T02:22:31.284Z,8.88
2019-04-07T02:23:31.702Z,8.88
2019-04-07T02:24:31.150Z,8.92
2019-04-07T02:25:31.693Z,8.88
2019-04-07T02:26:31.704Z,8.81
2019-04-07T02:27:31.766Z,8.84
2019-04-07T02:28:31.062Z,8.85
2019-04-07T02:29:31.064Z,8.81
2019-04-07T02:30:31.054Z,8.81
2019-04-07T02:31:31.912Z,8.81
2019-04-07T02:32:31.297Z,8.87
2019-04-07T02:33:31.110Z,8.81
2019-04-07T02:34:31.018Z,8.87
2019-04-07T02:35:31.867Z,8.87
2019-04-07T02:36:31.973Z,8.76
2019-04-07T02:37:31.318Z,8.79
2019-04-07T02:38:31.626Z,8.82
2019-04-07T02:39:30.962Z,8.76
2019-04-07T02:40:31.273Z,8.76
2019-04-07T02:41:30.934Z,8.73
2019-04-07T02:42:30.950Z,8.71
2019-04-07T02:43:31.128Z,8.74
2019-04-07T02:44:31.577Z,8.69
2019-04-07T02:45:30.884Z,8.73
2019-04-07T02:46:31.379Z,8.66
2019-04-07T02:47:31.329Z,8.70
2019-04-07T02:48:32.085Z,8.64
2019-04-07T02:49:32.256Z,8.69
2019-04-07T02:50:31.603Z,8.70
2019-04-07T02:51:31.855Z,8.61
2019-04-07T02:52:31.823Z,8.66
2019-04-07T02:53:30.950Z,8.61
2019-04-07T02:54:30.814Z,8.63
2019-04-07T02:55:30.781Z,8.58
2019-04-07T02:56:30.747Z,8.64
2019-04-07T02:57:31.823Z,8.60
2019-04-07T02:58:31.188Z,8.61
2019-04-07T02:59:31.191Z,8.64
2019-04-07T03:00:30.704Z,8.56
2019-04-07T03:01:30.693Z,8.60
2019-04-07T03:02:31.616Z,8.55
2019-04-07T03:03:31.128Z,8.55
2019-04-07T03:04:31.022Z,8.48
2019-04-07T03:05:30.655Z,8.48
2019-04-07T03:06:39.437Z,8.49
2019-04-07T03:07:32.493Z,8.44
2019-04-07T03:08:30.615Z,8.45
2019-04-07T03:09:31.091Z,8.51
2019-04-07T03:10:31.294Z,8.48
2019-04-07T03:11:31.393Z,8.45
2019-04-07T03:12:30.727Z,8.48
2019-04-07T03:13:31.535Z,8.52
2019-04-07T03:14:31.333Z,8.46
2019-04-07T03:15:31.112Z,8.44
2019-04-07T03:16:31.168Z,8.44
2019-04-07T03:17:31.656Z,8.44
2019-04-07T03:18:31.667Z,8.34
2019-04-07T03:19:30.508Z,8.37
2019-04-07T03:20:31.108Z,8.37
2019-04-07T03:21:31.050Z,8.38
2019-04-07T03:22:30.975Z,8.27
2019-04-07T03:23:30.654Z,8.28
2019-04-07T03:24:30.597Z,8.33
2019-04-07T03:25:30.466Z,8.30
2019-04-07T03:26:31.170Z,8.28
2019-04-07T03:27:31.328Z,8.31
2019-04-07T03:28:30.611Z,8.28
2019-04-07T03:29:31.131Z,8.19
2019-04-07T03:30:32.706Z,8.24
2019-04-07T03:31:32.320Z,8.28
2019-04-07T03:32:31.178Z,8.24
2019-04-07T03:33:32.842Z,8.26
2019-04-07T03:34:33.035Z,8.19
2019-04-07T03:35:32.925Z,8.15
2019-04-07T03:36:32.559Z,8.15
2019-04-07T03:37:39.756Z,8.20
2019-04-07T03:38:31.522Z,8.13
2019-04-07T03:39:30.271Z,8.16
2019-04-07T03:40:30.290Z,8.18
2019-04-07T03:41:30.750Z,8.09
2019-04-07T03:42:30.241Z,8.15
2019-04-07T03:43:30.429Z,8.10
2019-04-07T03:44:30.258Z,8.12
2019-04-07T03:45:30.524Z,8.08
2019-04-07T03:46:30.195Z,8.06
2019-04-07T03:47:30.263Z,8.13
2019-04-07T03:48:30.507Z,8.03
2019-04-07T03:49:30.168Z,8.12
2019-04-07T03:50:30.162Z,8.03
2019-04-07T03:51:30.280Z,8.08
2019-04-07T03:52:30.124Z,8.03
2019-04-07T03:53:30.493Z,7.97
2019-04-07T03:54:30.299Z,7.98
2019-04-07T03:55:31.067Z,8.03
2019-04-07T03:56:30.682Z,7.94
2019-04-07T03:57:30.105Z,7.95
2019-04-07T03:58:30.939Z,7.90
2019-04-07T03:59:30.106Z,7.87
2019-04-07T04:00:30.035Z,7.87
2019-04-07T04:01:30.219Z,7.90
2019-04-07T04:02:30.018Z,7.87
2019-04-07T04:03:30.253Z,7.90
2019-04-07T04:04:30.110Z,7.94
2019-04-07T04:05:29.979Z,7.93
2019-04-07T04:06:30.224Z,7.87
2019-04-07T04:07:35.776Z,7.90
2019-04-07T04:08:31.717Z,7.88
2019-04-07T04:09:30.414Z,7.87
2019-04-07T04:10:30.122Z,7.85
2019-04-07T04:11:29.911Z,7.91
2019-04-07T04:12:30.157Z,7.88
2019-04-07T04:13:30.677Z,7.94
2019-04-07T04:14:29.905Z,7.93
2019-04-07T04:15:30.186Z,7.83
2019-04-07T04:16:29.861Z,7.90
2019-04-07T04:17:30.661Z,7.83
2019-04-07T04:18:30.899Z,7.77
2019-04-07T04:19:30.205Z,7.90
2019-04-07T04:20:30.245Z,7.88
2019-04-07T04:21:30.748Z,7.82
2019-04-07T04:22:30.804Z,7.85
2019-04-07T04:23:30.303Z,7.70
2019-04-07T04:24:30.367Z,7.79
2019-04-07T04:25:30.428Z,7.77
2019-04-07T04:26:29.765Z,7.75
2019-04-07T04:27:30.108Z,7.75
2019-04-07T04:28:30.653Z,7.72
2019-04-07T04:29:29.914Z,7.66
2019-04-07T04:30:29.978Z,7.63
2019-04-07T04:31:29.807Z,7.69
2019-04-07T04:32:30.798Z,7.69
2019-04-07T04:33:29.855Z,7.60
2019-04-07T04:34:29.657Z,7.66
2019-04-07T04:35:30.075Z,7.60
2019-04-07T04:36:29.650Z,7.61
2019-04-07T04:37:40.216Z,7.58
2019-04-07T04:38:30.614Z,7.63
2019-04-07T04:39:29.611Z,7.63
2019-04-07T04:40:29.841Z,7.60
2019-04-07T04:41:29.582Z,7.50
2019-04-07T04:42:29.571Z,7.43
2019-04-07T04:43:29.571Z,7.51
2019-04-07T04:44:29.588Z,7.50
2019-04-07T04:45:29.603Z,7.51
2019-04-07T04:46:30.448Z,7.54
2019-04-07T04:47:29.514Z,7.51
2019-04-07T04:48:29.998Z,7.51
2019-04-07T04:49:29.500Z,7.42
2019-04-07T04:50:29.957Z,7.42
2019-04-07T04:51:29.644Z,7.40
2019-04-07T04:52:29.715Z,7.45
2019-04-07T04:53:30.722Z,7.35
2019-04-07T04:54:29.445Z,7.42
2019-04-07T04:55:29.755Z,7.36
2019-04-07T04:56:29.411Z,7.38
2019-04-07T04:57:29.415Z,7.36
2019-04-07T04:58:30.238Z,7.31
2019-04-07T04:59:29.804Z,7.39
2019-04-07T05:00:29.398Z,7.36
2019-04-07T05:01:29.354Z,7.38
2019-04-07T05:02:29.987Z,7.32
2019-04-07T05:03:29.330Z,7.36
2019-04-07T05:04:29.389Z,7.28
2019-04-07T05:05:30.290Z,7.36
2019-04-07T05:06:29.670Z,7.33
2019-04-07T05:07:30.065Z,7.33
2019-04-07T05:08:29.840Z,7.35
2019-04-07T05:09:40.224Z,7.35
2019-04-07T05:10:30.988Z,7.38
2019-04-07T05:11:29.378Z,7.35
2019-04-07T05:12:29.230Z,7.36
2019-04-07T05:13:29.222Z,7.35
2019-04-07T05:14:29.214Z,7.35
2019-04-07T05:15:29.678Z,7.29
2019-04-07T05:16:29.328Z,7.33
2019-04-07T05:17:29.190Z,7.35
2019-04-07T05:18:29.162Z,7.40
2019-04-07T05:19:29.174Z,7.40
2019-04-07T05:20:29.421Z,7.35
2019-04-07T05:21:29.142Z,7.45
2019-04-07T05:22:29.160Z,7.42
2019-04-07T05:23:29.455Z,7.43
2019-04-07T05:24:29.098Z,7.42
2019-04-07T05:25:29.491Z,7.45
2019-04-07T05:26:29.171Z,7.50
2019-04-07T05:27:29.324Z,7.48
2019-04-07T05:28:29.621Z,7.50
2019-04-07T05:29:29.124Z,7.50
2019-04-07T05:30:29.029Z,7.51
2019-04-07T05:31:29.226Z,7.53
2019-04-07T05:32:29.006Z,7.43
2019-04-07T05:33:29.337Z,7.47
2019-04-07T05:34:28.998Z,7.57
2019-04-07T05:35:29.656Z,7.53
2019-04-07T05:36:28.978Z,7.45
2019-04-07T05:37:29.557Z,7.48
2019-04-07T05:38:29.075Z,7.54
2019-04-07T05:39:28.930Z,7.58
2019-04-07T05:40:29.504Z,7.60
2019-04-07T05:41:29.612Z,7.63
2019-04-07T05:42:28.928Z,7.63
2019-04-07T05:43:28.909Z,7.58
2019-04-07T05:44:28.950Z,7.61
2019-04-07T05:45:28.869Z,7.67
2019-04-07T05:46:28.856Z,7.61
2019-04-07T05:47:28.849Z,7.63
2019-04-07T05:48:29.145Z,7.63
2019-04-07T05:49:28.838Z,7.63
2019-04-07T05:50:29.040Z,7.73
2019-04-07T05:51:30.099Z,7.79
2019-04-07T05:52:29.355Z,7.76
2019-04-07T05:53:28.774Z,7.72
2019-04-07T05:54:28.766Z,7.83
2019-04-07T05:55:29.288Z,7.82
2019-04-07T05:56:29.433Z,7.91
2019-04-07T05:57:33.340Z,7.76
2019-04-07T05:58:29.718Z,7.85
2019-04-07T05:59:28.767Z,7.83
2019-04-07T06:00:28.698Z,7.82
2019-04-07T06:01:28.701Z,7.83
2019-04-07T06:02:31.292Z,7.93
2019-04-07T06:03:28.668Z,8.00
2019-04-07T06:04:29.158Z,7.94
2019-04-07T06:05:29.034Z,7.91
2019-04-07T06:06:28.643Z,8.05
2019-04-07T06:07:30.712Z,8.00
2019-04-07T06:08:35.399Z,8.10
2019-04-07T06:09:29.682Z,8.05
2019-04-07T06:10:29.756Z,8.05
2019-04-07T06:11:31.284Z,8.12
2019-04-07T06:12:28.578Z,8.10
2019-04-07T06:13:29.134Z,8.15
2019-04-07T06:14:28.542Z,8.13
2019-04-07T06:15:29.106Z,8.16
2019-04-07T06:16:28.806Z,8.26
2019-04-07T06:17:28.528Z,8.24
2019-04-07T06:18:32.430Z,8.27
2019-04-07T06:19:29.482Z,8.27
2019-04-07T06:20:28.996Z,8.36
2019-04-07T06:21:28.630Z,8.44
2019-04-07T06:22:28.458Z,8.42
2019-04-07T06:23:29.800Z,8.49
2019-04-07T06:24:31.617Z,8.49
2019-04-07T06:25:33.092Z,8.46
2019-04-07T06:26:29.406Z,8.45
2019-04-07T06:27:29.756Z,8.49
2019-04-07T06:28:29.217Z,8.55
2019-04-07T06:29:28.969Z,8.60
2019-04-07T06:30:31.246Z,8.60
2019-04-07T06:31:31.294Z,8.60
2019-04-07T06:32:28.347Z,8.70
2019-04-07T06:33:28.546Z,8.74
2019-04-07T06:34:28.908Z,8.76
2019-04-07T06:35:28.356Z,8.74
2019-04-07T06:36:28.755Z,8.79
2019-04-07T06:37:29.431Z,8.85
2019-04-07T06:38:34.051Z,8.87
2019-04-07T06:39:31.853Z,8.94
2019-04-07T06:40:28.475Z,8.94
2019-04-07T06:41:31.253Z,9.04
2019-04-07T06:42:31.568Z,9.06
2019-04-07T06:43:28.213Z,9.11
2019-04-07T06:44:28.206Z,9.11
2019-04-07T06:45:28.344Z,9.23
2019-04-07T06:46:28.647Z,9.19
2019-04-07T06:47:30.759Z,9.21
2019-04-07T06:48:28.838Z,9.26
2019-04-07T06:49:29.484Z,9.25
2019-04-07T06:50:28.144Z,9.37
2019-04-07T06:51:30.890Z,9.40
2019-04-07T06:52:28.564Z,9.50
2019-04-07T06:53:28.101Z,9.51
2019-04-07T06:54:28.682Z,9.47
2019-04-07T06:55:29.673Z,9.61
2019-04-07T06:56:32.141Z,9.65
2019-04-07T06:57:29.840Z,9.66
2019-04-07T06:58:28.147Z,9.77
2019-04-07T06:59:28.321Z,9.74
2019-04-07T07:00:28.085Z,9.79
2019-04-07T07:01:28.510Z,9.83
2019-04-07T07:02:30.227Z,9.87
2019-04-07T07:03:28.247Z,9.92
2019-04-07T07:04:27.985Z,9.91
2019-04-07T07:05:28.043Z,10.05
2019-04-07T07:06:28.541Z,10.12
2019-04-07T07:07:28.164Z,10.15
2019-04-07T07:08:28.396Z,10.20
2019-04-07T07:09:28.782Z,10.23
2019-04-07T07:10:30.422Z,10.23
2019-04-07T07:11:31.310Z,10.37
2019-04-07T07:12:34.925Z,10.33
2019-04-07T07:13:33.358Z,10.42
2019-04-07T07:14:38.067Z,10.40
2019-04-07T07:15:33.741Z,10.54
2019-04-07T07:16:29.846Z,10.59
2019-04-07T07:17:27.996Z,10.59
2019-04-07T07:18:28.350Z,10.68
2019-04-07T07:19:29.240Z,10.60
2019-04-07T07:20:29.578Z,10.63
2019-04-07T07:21:28.596Z,10.75
2019-04-07T07:22:28.573Z,10.78
2019-04-07T07:23:28.533Z,10.75
2019-04-07T07:24:27.765Z,10.86
2019-04-07T07:25:29.859Z,10.84
2019-04-07T07:26:28.437Z,11.02
2019-04-07T07:27:27.729Z,10.97
2019-04-07T07:28:28.306Z,11.04
2019-04-07T07:29:27.767Z,11.00
2019-04-07T07:30:28.286Z,11.19
2019-04-07T07:31:28.292Z,11.14
2019-04-07T07:32:28.065Z,11.23
2019-04-07T07:33:28.040Z,11.44
2019-04-07T07:34:28.262Z,11.47
2019-04-07T07:35:27.649Z,11.47
2019-04-07T07:36:28.438Z,11.52
2019-04-07T07:37:28.086Z,11.57
2019-04-07T07:38:32.101Z,11.59
2019-04-07T07:39:28.355Z,11.63
2019-04-07T07:40:27.610Z,11.66
2019-04-07T07:41:28.024Z,11.68
2019-04-07T07:42:27.793Z,11.69
2019-04-07T07:43:29.246Z,11.77
2019-04-07T07:44:27.774Z,11.87
2019-04-07T07:45:28.273Z,11.87
2019-04-07T07:46:27.910Z,11.88
2019-04-07T07:47:27.543Z,11.90
2019-04-07T07:48:28.372Z,11.91
2019-04-07T07:49:28.115Z,12.09
2019-04-07T07:50:28.381Z,12.10
2019-04-07T07:51:27.467Z,12.20
2019-04-07T07:52:27.459Z,12.20
2019-04-07T07:53:28.589Z,12.29
2019-04-07T07:54:28.232Z,12.25
2019-04-07T07:55:27.476Z,12.35
2019-04-07T07:56:27.413Z,12.36
2019-04-07T07:57:27.493Z,12.49
2019-04-07T07:58:30.846Z,12.55
2019-04-07T07:59:30.610Z,12.55
2019-04-07T08:00:28.358Z,12.70
2019-04-07T08:01:27.353Z,12.68
2019-04-07T08:02:29.071Z,12.86
2019-04-07T08:03:27.337Z,12.87
2019-04-07T08:04:27.669Z,12.82
2019-04-07T08:05:31.691Z,13.00
2019-04-07T08:06:28.321Z,12.94
2019-04-07T08:07:28.719Z,13.03
2019-04-07T08:08:27.661Z,13.08
2019-04-07T08:09:27.307Z,13.11
2019-04-07T08:10:27.621Z,13.12
2019-04-07T08:11:30.955Z,13.15
2019-04-07T08:12:27.436Z,13.30
2019-04-07T08:13:27.233Z,13.27
2019-04-07T08:14:27.417Z,13.22
2019-04-07T08:15:31.827Z,13.35
2019-04-07T08:16:31.060Z,13.44
2019-04-07T08:17:27.721Z,13.49
2019-04-07T08:18:27.187Z,13.52
2019-04-07T08:19:29.624Z,13.53
2019-04-07T08:20:27.453Z,13.62
2019-04-07T08:21:28.008Z,13.65
2019-04-07T08:22:32.495Z,13.79
2019-04-07T08:23:28.628Z,13.71
2019-04-07T08:24:27.328Z,13.77
2019-04-07T08:25:27.085Z,13.85
2019-04-07T08:26:27.813Z,13.93
2019-04-07T08:27:31.037Z,13.92
2019-04-07T08:28:27.049Z,14.05
2019-04-07T08:29:27.068Z,14.12
2019-04-07T08:30:27.187Z,14.26
2019-04-07T08:31:27.013Z,14.29
2019-04-07T08:32:30.786Z,14.36
2019-04-07T08:33:29.521Z,14.50
2019-04-07T08:34:30.519Z,14.53
2019-04-07T08:35:28.833Z,14.63
2019-04-07T08:36:27.617Z,14.66
2019-04-07T08:37:26.966Z,14.73
2019-04-07T08:38:28.294Z,14.81
2019-04-07T08:39:31.587Z,14.84
2019-04-07T08:40:28.549Z,14.97
2019-04-07T08:41:27.742Z,15.06
2019-04-07T08:42:27.018Z,15.09
2019-04-07T08:43:27.599Z,15.22
2019-04-07T08:44:29.294Z,15.27
2019-04-07T08:45:30.006Z,15.36
2019-04-07T08:46:30.806Z,15.46
2019-04-07T08:47:26.829Z,15.59
2019-04-07T08:48:26.869Z,15.67
2019-04-07T08:49:27.616Z,15.67
2019-04-07T08:50:28.546Z,15.76
2019-04-07T08:51:27.430Z,15.84
2019-04-07T08:52:27.150Z,15.92
2019-04-07T08:53:26.760Z,15.92
2019-04-07T08:54:27.558Z,16.04
2019-04-07T08:55:26.763Z,16.10
2019-04-07T08:56:27.731Z,16.09
2019-04-07T08:57:29.153Z,16.15
2019-04-07T08:58:28.997Z,16.12
2019-04-07T08:59:27.050Z,16.15
2019-04-07T09:00:27.155Z,16.21
2019-04-07T09:01:28.816Z,16.36
2019-04-07T09:02:29.187Z,16.38
2019-04-07T09:03:26.653Z,16.38
2019-04-07T09:04:26.683Z,16.46
2019-04-07T09:05:29.870Z,16.58
2019-04-07T09:06:28.464Z,16.56
2019-04-07T09:07:26.676Z,16.74
2019-04-07T09:08:26.630Z,16.68
2019-04-07T09:09:34.039Z,16.81
2019-04-07T09:10:27.573Z,16.91
2019-04-07T09:11:27.122Z,16.94
2019-04-07T09:12:29.125Z,17.05
2019-04-07T09:13:26.552Z,17.05
2019-04-07T09:14:27.232Z,17.15
2019-04-07T09:15:27.076Z,17.27
2019-04-07T09:16:26.542Z,17.31
2019-04-07T09:17:32.276Z,17.38
2019-04-07T09:18:27.501Z,17.42
2019-04-07T09:19:26.475Z,17.41
2019-04-07T09:20:26.798Z,17.46
2019-04-07T09:21:37.300Z,17.51
2019-04-07T09:22:29.733Z,17.54
2019-04-07T09:23:27.472Z,17.36
2019-04-07T09:24:29.775Z,17.51
2019-04-07T09:25:27.222Z,17.51
2019-04-07T09:26:27.103Z,17.64
2019-04-07T09:27:26.734Z,17.70
2019-04-07T09:28:26.547Z,17.79
2019-04-07T09:29:28.171Z,17.80
2019-04-07T09:30:26.350Z,17.92
2019-04-07T09:31:26.353Z,17.90
2019-04-07T09:32:26.424Z,18.05
2019-04-07T09:33:26.314Z,18.15
2019-04-07T09:34:26.305Z,18.28
2019-04-07T09:35:26.788Z,18.34
2019-04-07T09:36:26.542Z,18.29
2019-04-07T09:37:26.273Z,18.38
2019-04-07T09:38:27.353Z,18.43
2019-04-07T09:39:26.942Z,18.38
2019-04-07T09:40:26.768Z,18.53
2019-04-07T09:41:28.551Z,18.63
2019-04-07T09:42:26.798Z,18.65
2019-04-07T09:43:26.296Z,18.65
2019-04-07T09:44:26.594Z,18.74
2019-04-07T09:45:26.480Z,18.84
2019-04-07T09:46:26.476Z,18.95
2019-04-07T09:47:26.785Z,18.93
2019-04-07T09:48:26.776Z,19.04
2019-04-07T09:49:26.137Z,19.16
2019-04-07T09:50:27.829Z,19.27
2019-04-07T09:51:26.553Z,19.22
2019-04-07T09:52:26.105Z,19.19
2019-04-07T09:53:26.157Z,19.21
2019-04-07T09:54:26.085Z,19.19
2019-04-07T09:55:27.005Z,19.21
2019-04-07T09:56:27.226Z,19.31
2019-04-07T09:57:26.057Z,19.37
2019-04-07T09:58:26.299Z,19.39
2019-04-07T09:59:26.071Z,19.40
2019-04-07T10:00:26.022Z,19.52
2019-04-07T10:01:28.655Z,19.52
2019-04-07T10:02:26.171Z,19.59
2019-04-07T10:03:25.982Z,19.67
2019-04-07T10:04:25.968Z,19.59
2019-04-07T10:05:25.973Z,19.73
2019-04-07T10:06:25.982Z,19.77
2019-04-07T10:07:25.935Z,19.92
2019-04-07T10:08:26.071Z,19.92
2019-04-07T10:09:26.775Z,19.94
2019-04-07T10:10:28.183Z,20.02
2019-04-07T10:11:26.299Z,19.96
2019-04-07T10:12:28.226Z,19.95
2019-04-07T10:13:25.878Z,20.04
2019-04-07T10:14:25.906Z,19.95
2019-04-07T10:15:25.858Z,19.99
2019-04-07T10:16:25.928Z,20.03
2019-04-07T10:17:26.194Z,20.07
2019-04-07T10:18:25.876Z,20.10
2019-04-07T10:19:25.803Z,20.02
2019-04-07T10:20:25.938Z,20.03
2019-04-07T10:21:26.389Z,20.11
2019-04-07T10:22:26.578Z,20.13
2019-04-07T10:23:26.381Z,20.16
2019-04-07T10:24:25.918Z,20.19
2019-04-07T10:25:27.955Z,20.34
2019-04-07T10:26:25.756Z,20.32
2019-04-07T10:27:26.245Z,20.34
2019-04-07T10:28:25.707Z,20.40
2019-04-07T10:29:26.373Z,20.32
2019-04-07T10:30:26.035Z,20.48
2019-04-07T10:31:25.699Z,20.66
2019-04-07T10:32:26.862Z,20.75
2019-04-07T10:33:25.662Z,20.81
2019-04-07T10:34:25.999Z,20.65
2019-04-07T10:35:25.658Z,20.62
2019-04-07T10:36:25.622Z,20.60
2019-04-07T10:37:25.620Z,20.60
2019-04-07T10:38:25.845Z,20.70
2019-04-07T10:39:25.594Z,20.75
2019-04-07T10:40:26.420Z,20.66
2019-04-07T10:41:26.252Z,20.75
2019-04-07T10:42:25.551Z,20.72
2019-04-07T10:43:26.184Z,20.69
2019-04-07T10:44:26.038Z,20.77
2019-04-07T10:45:26.304Z,20.70
2019-04-07T10:46:25.972Z,20.84
2019-04-07T10:47:25.623Z,20.81
2019-04-07T10:48:25.902Z,20.72
2019-04-07T10:49:26.216Z,20.65
2019-04-07T10:50:25.705Z,20.69
2019-04-07T10:51:25.454Z,20.74
2019-04-07T10:52:26.068Z,20.62
2019-04-07T10:53:26.224Z,20.58
2019-04-07T10:54:25.430Z,20.62
2019-04-07T10:55:25.421Z,20.69
2019-04-07T10:56:25.525Z,20.75
2019-04-07T10:57:25.388Z,20.77
2019-04-07T10:58:25.374Z,20.81
2019-04-07T10:59:25.638Z,20.87
2019-04-07T11:00:25.869Z,20.80
2019-04-07T11:01:25.542Z,20.96
2019-04-07T11:02:26.007Z,20.97
2019-04-07T11:03:25.318Z,21.11
2019-04-07T11:04:25.492Z,21.33
2019-04-07T11:05:26.083Z,21.64
2019-04-07T11:06:25.412Z,21.77
2019-04-07T11:07:25.891Z,21.82
2019-04-07T11:08:25.427Z,21.93
2019-04-07T11:09:25.626Z,21.89
2019-04-07T11:10:34.612Z,22.00
2019-04-07T11:11:26.655Z,22.10
2019-04-07T11:12:25.218Z,22.13
2019-04-07T11:13:25.226Z,22.17
2019-04-07T11:14:26.230Z,22.17
2019-04-07T11:15:25.905Z,22.11
2019-04-07T11:16:25.192Z,22.18
2019-04-07T11:17:25.398Z,22.22
2019-04-07T11:18:25.352Z,22.29
2019-04-07T11:19:27.907Z,22.35
2019-04-07T11:20:25.777Z,22.41
2019-04-07T11:21:26.482Z,22.36
2019-04-07T11:22:25.410Z,22.35
2019-04-07T11:23:25.265Z,22.38
2019-04-07T11:24:25.111Z,22.41
2019-04-07T11:25:25.070Z,22.47
2019-04-07T11:26:25.279Z,22.44
2019-04-07T11:27:25.493Z,22.50
2019-04-07T11:28:27.849Z,22.54
2019-04-07T11:29:25.119Z,22.60
2019-04-07T11:30:25.542Z,22.70
2019-04-07T11:31:25.579Z,22.70
2019-04-07T11:32:24.998Z,22.73
2019-04-07T11:33:24.998Z,22.73
2019-04-07T11:34:24.974Z,22.69
2019-04-07T11:35:27.609Z,22.65
2019-04-07T11:36:25.551Z,22.65
2019-04-07T11:37:24.938Z,22.63
2019-04-07T11:38:25.615Z,22.66
2019-04-07T11:39:24.930Z,22.63
2019-04-07T11:40:24.903Z,22.59
2019-04-07T11:41:27.194Z,22.53
2019-04-07T11:42:25.128Z,22.70
2019-04-07T11:43:25.458Z,22.68
2019-04-07T11:44:24.862Z,22.51
2019-04-07T11:45:25.393Z,22.39
2019-04-07T11:46:24.875Z,22.30
2019-04-07T11:47:25.297Z,22.39
2019-04-07T11:48:25.814Z,22.53
2019-04-07T11:49:24.807Z,22.51
2019-04-07T11:50:24.844Z,22.54
2019-04-07T11:51:24.802Z,22.54
2019-04-07T11:52:24.916Z,22.54
2019-04-07T11:53:25.842Z,22.59
2019-04-07T11:54:25.194Z,22.50
2019-04-07T11:55:26.120Z,22.29
2019-04-07T11:56:25.067Z,22.14
2019-04-07T11:57:24.732Z,22.18
2019-04-07T11:58:32.000Z,22.20
2019-04-07T11:59:26.328Z,22.13
2019-04-07T12:00:25.082Z,22.06
2019-04-07T12:01:24.678Z,22.20
2019-04-07T12:02:24.740Z,22.11
2019-04-07T12:03:27.562Z,22.07
2019-04-07T12:04:25.190Z,22.17
2019-04-07T12:05:25.108Z,22.30
2019-04-07T12:06:25.509Z,22.51
2019-04-07T12:07:25.101Z,22.54
2019-04-07T12:08:28.162Z,22.55
2019-04-07T12:09:25.869Z,22.47
2019-04-07T12:10:24.582Z,22.44
2019-04-07T12:11:24.709Z,22.39
2019-04-07T12:12:24.653Z,22.47
2019-04-07T12:13:25.380Z,22.41
2019-04-07T12:14:25.595Z,22.25
2019-04-07T12:15:26.913Z,22.13
2019-04-07T12:16:27.737Z,22.18
2019-04-07T12:17:25.652Z,22.15
2019-04-07T12:18:24.503Z,22.10
2019-04-07T12:19:24.909Z,21.98
2019-04-07T12:20:27.008Z,21.93
2019-04-07T12:21:25.813Z,21.72
2019-04-07T12:22:24.986Z,21.50
2019-04-07T12:23:27.325Z,21.24
2019-04-07T12:24:27.345Z,21.05
2019-04-07T12:25:24.445Z,20.95
2019-04-07T12:26:24.768Z,20.93
2019-04-07T12:27:24.390Z,20.77
2019-04-07T12:28:24.692Z,20.82
2019-04-07T12:29:24.484Z,21.00
2019-04-07T12:30:25.157Z,21.14
2019-04-07T12:31:24.963Z,21.14
2019-04-07T12:32:24.942Z,21.09
2019-04-07T12:33:24.335Z,21.11
2019-04-07T12:34:24.317Z,21.25
2019-04-07T12:35:24.317Z,21.32
2019-04-07T12:36:28.885Z,21.46
2019-04-07T12:37:25.274Z,21.43
2019-04-07T12:38:24.275Z,21.39
2019-04-07T12:39:24.284Z,21.25
2019-04-07T12:40:24.252Z,21.22
2019-04-07T12:41:24.527Z,21.14
2019-04-07T12:42:24.243Z,21.05
2019-04-07T12:43:24.961Z,21.06
2019-04-07T12:44:24.200Z,20.97
2019-04-07T12:45:24.195Z,20.93
2019-04-07T12:46:24.580Z,20.90
2019-04-07T12:47:24.214Z,20.80
2019-04-07T12:48:27.840Z,20.66
2019-04-07T12:49:24.324Z,20.69
2019-04-07T12:50:24.135Z,20.62
2019-04-07T12:51:24.124Z,20.59
2019-04-07T12:52:28.085Z,20.48
2019-04-07T12:53:26.315Z,20.44
2019-04-07T12:54:24.150Z,20.43
2019-04-07T12:55:24.135Z,20.26
2019-04-07T12:56:24.336Z,20.21
2019-04-07T12:57:24.226Z,20.16
2019-04-07T12:58:24.471Z,20.06
2019-04-07T12:59:24.099Z,19.95
2019-04-07T13:00:24.980Z,19.96
2019-04-07T13:01:24.020Z,19.91
2019-04-07T13:02:24.121Z,19.88
2019-04-07T13:03:24.345Z,19.77
2019-04-07T13:04:24.386Z,19.88
2019-04-07T13:05:24.148Z,19.95
2019-04-07T13:06:24.161Z,20.10